createdAt,value
2023-01-15T00:00:03.592Z,97590.00
2023-01-15T00:02:32.502Z,97606.03
2023-01-15T00:05:03.144Z,97607.69
2023-01-15T00:07:31.249Z,97597.78
2023-01-15T00:10:00.675Z,97601.50
2023-01-15T00:12:28.714Z,97600.66
2023-01-15T00:14:58.290Z,97601.09
2023-01-15T00:17:26.657Z,97589.38
2023-01-15T00:19:54.857Z,97584.59
2023-01-15T00:22:22.899Z,97587.50
2023-01-15T00:25:08.417Z,97588.31
2023-01-15T00:27:41.282Z,97592.03
2023-01-15T00:30:13.766Z,97585.03
2023-01-15T00:32:42.470Z,97568.19
2023-01-15T00:35:14.333Z,97585.03
2023-01-15T00:37:42.393Z,97563.28
2023-01-15T00:40:11.599Z,97577.00
2023-01-15T00:42:41.197Z,97578.03
2023-01-15T00:45:11.049Z,97572.47
2023-01-15T00:47:39.762Z,97579.69
2023-01-15T00:50:10.491Z,97574.31
2023-01-15T00:52:38.925Z,97583.41
2023-01-15T00:55:08.529Z,97601.09
2023-01-15T00:57:36.568Z,97583.66
2023-01-15T01:00:07.182Z,97596.16
2023-01-15T01:02:35.243Z,97600.28
2023-01-15T01:05:03.269Z,97604.81
2023-01-15T01:07:31.301Z,97606.84
2023-01-15T01:09:59.379Z,97627.84
2023-01-15T01:12:27.406Z,97627.84
2023-01-15T01:14:55.437Z,97620.84
2023-01-15T01:17:24.884Z,97627.84
2023-01-15T01:19:52.881Z,97624.16
2023-01-15T01:22:21.077Z,97629.50
2023-01-15T01:24:49.264Z,97623.31
2023-01-15T01:27:19.016Z,97629.09
2023-01-15T01:29:47.201Z,97634.03
2023-01-15T01:32:15.327Z,97630.53
2023-01-15T01:34:44.770Z,97631.56
2023-01-15T01:37:13.086Z,97624.38
2023-01-15T01:39:42.271Z,97638.53
2023-01-15T01:42:13.566Z,97633.19
2023-01-15T01:45:01.276Z,97628.69
2023-01-15T01:47:33.071Z,97630.72
2023-01-15T01:50:05.805Z,97631.56
2023-01-15T01:52:42.664Z,97630.72
2023-01-15T01:55:11.989Z,97628.88
2023-01-15T01:57:40.705Z,97634.25
2023-01-15T02:00:11.809Z,97624.56
2023-01-15T02:02:40.921Z,97628.25
2023-01-15T02:05:13.690Z,97628.88
2023-01-15T02:07:42.148Z,97627.25
2023-01-15T02:10:15.451Z,97632.59
2023-01-15T02:12:47.854Z,97630.94
2023-01-15T02:15:20.270Z,97629.94
2023-01-15T02:17:54.864Z,97630.34
2023-01-15T02:20:31.076Z,97627.25
2023-01-15T02:23:21.954Z,97629.94
2023-01-15T02:26:14.539Z,97621.91
2023-01-15T02:28:46.429Z,97633.63
2023-01-15T02:31:20.708Z,97621.28
2023-01-15T02:33:57.355Z,97623.75
2023-01-15T02:36:28.798Z,97621.28
2023-01-15T02:39:00.484Z,97631.97
2023-01-15T02:41:34.186Z,97626.63
2023-01-15T02:44:06.648Z,97622.31
2023-01-15T02:46:37.791Z,97626.63
2023-01-15T02:49:10.358Z,97560.84
2023-01-15T02:51:42.815Z,97624.78
2023-01-15T02:54:16.252Z,97630.94
2023-01-15T02:56:46.861Z,97622.09
2023-01-15T02:59:23.608Z,97617.56
2023-01-15T03:01:56.330Z,97628.25
2023-01-15T03:04:32.294Z,97633.63
2023-01-15T03:07:07.873Z,97625.59
2023-01-15T03:09:37.746Z,97628.25
2023-01-15T03:12:13.367Z,97629.09
2023-01-15T03:14:50.973Z,97623.75
2023-01-15T03:17:22.632Z,97617.56
2023-01-15T03:19:55.661Z,97617.56
2023-01-15T03:22:29.672Z,97620.22
2023-01-15T03:25:04.819Z,97623.94
2023-01-15T03:27:33.489Z,97626.63
2023-01-15T03:30:08.132Z,97622.09
2023-01-15T03:32:36.743Z,97612.22
2023-01-15T03:35:07.759Z,97630.94
2023-01-15T03:37:35.859Z,97621.28
2023-01-15T03:40:04.915Z,97618.59
2023-01-15T03:42:45.743Z,97616.97
2023-01-15T03:45:20.623Z,97625.00
2023-01-15T03:48:01.840Z,97621.28
2023-01-15T03:50:37.923Z,97619.63
2023-01-15T03:53:13.033Z,97617.97
2023-01-15T03:55:47.267Z,97619.63
2023-01-15T03:58:20.789Z,97616.34
2023-01-15T04:00:53.610Z,97601.31
2023-01-15T04:03:25.151Z,97601.13
2023-01-15T04:05:56.198Z,97610.56
2023-01-15T04:08:25.944Z,97614.28
2023-01-15T04:10:55.384Z,97599.88
2023-01-15T04:13:23.685Z,97605.22
2023-01-15T04:15:53.894Z,97601.13
2023-01-15T04:18:22.433Z,97614.28
2023-01-15T04:20:51.776Z,97603.59
2023-01-15T04:23:19.980Z,97610.16
2023-01-15T04:25:48.115Z,97610.56
2023-01-15T04:28:16.174Z,97611.41
2023-01-15T04:30:44.523Z,97603.59
2023-01-15T04:33:14.044Z,97599.88
2023-01-15T04:35:42.093Z,97591.00
2023-01-15T04:38:10.214Z,97589.16
2023-01-15T04:40:56.060Z,97598.03
2023-01-15T04:43:41.920Z,97592.88
2023-01-15T04:46:10.054Z,97598.25
2023-01-15T04:48:40.116Z,97595.34
2023-01-15T04:51:09.052Z,97583.81
2023-01-15T04:53:37.129Z,97591.22
2023-01-15T04:56:06.502Z,97578.47
2023-01-15T04:58:35.601Z,97575.78
2023-01-15T05:01:05.167Z,97578.47
2023-01-15T05:03:33.413Z,97578.47
2023-01-15T05:06:04.612Z,97576.81
2023-01-15T05:08:32.938Z,97577.63
2023-01-15T05:11:03.713Z,97572.28
2023-01-15T05:13:33.512Z,97509.84
2023-01-15T05:16:13.692Z,97562.41
2023-01-15T05:18:42.212Z,97559.09
2023-01-15T05:21:18.442Z,97557.47
2023-01-15T05:23:46.863Z,97554.59
2023-01-15T05:26:15.220Z,97530.53
2023-01-15T05:28:43.665Z,97547.41
2023-01-15T05:31:13.534Z,97543.06
2023-01-15T05:33:41.655Z,97555.44
2023-01-15T05:36:11.907Z,97558.09
2023-01-15T05:38:41.753Z,97556.22
2023-01-15T05:41:26.343Z,97550.50
2023-01-15T05:43:55.201Z,97547.63
2023-01-15T05:46:23.467Z,97558.09
2023-01-15T05:48:51.664Z,97562.41
2023-01-15T05:51:19.705Z,97551.72
2023-01-15T05:53:49.232Z,97549.88
2023-01-15T05:56:17.296Z,97567.75
2023-01-15T05:58:45.419Z,97548.84
2023-01-15T06:01:13.534Z,97551.72
2023-01-15T06:03:42.689Z,97539.38
2023-01-15T06:06:14.622Z,97549.03
2023-01-15T06:08:43.047Z,97544.09
2023-01-15T06:11:12.773Z,97543.88
2023-01-15T06:13:41.938Z,97539.38
2023-01-15T06:16:11.914Z,97533.63
2023-01-15T06:18:40.105Z,97543.88
2023-01-15T06:21:09.731Z,97544.72
2023-01-15T06:23:38.513Z,97546.34
2023-01-15T06:26:09.048Z,97537.28
2023-01-15T06:28:38.471Z,97553.34
2023-01-15T06:31:07.427Z,97537.72
2023-01-15T06:33:35.635Z,97537.28
2023-01-15T06:36:07.387Z,97532.97
2023-01-15T06:38:35.656Z,97535.66
2023-01-15T06:41:25.522Z,97469.91
2023-01-15T06:44:12.774Z,97521.22
2023-01-15T06:47:01.713Z,97521.22
2023-01-15T06:49:29.877Z,97505.81
2023-01-15T06:51:58.137Z,97519.59
2023-01-15T06:54:26.416Z,97508.91
2023-01-15T06:56:54.844Z,97486.31
2023-01-15T06:59:24.327Z,97517.53
2023-01-15T07:01:52.463Z,97494.47
2023-01-15T07:04:20.642Z,97482.78
2023-01-15T07:06:48.702Z,97510.09
2023-01-15T07:09:16.726Z,97511.16
2023-01-15T07:11:50.477Z,97513.81
2023-01-15T07:14:20.052Z,97504.75
2023-01-15T07:16:50.031Z,97510.09
2023-01-15T07:19:18.702Z,97520.81
2023-01-15T07:21:47.237Z,97517.53
2023-01-15T07:24:15.788Z,97500.69
2023-01-15T07:26:45.537Z,97520.00
2023-01-15T07:29:14.047Z,97524.53
2023-01-15T07:31:42.166Z,97529.88
2023-01-15T07:34:11.726Z,97478.53
2023-01-15T07:36:39.848Z,97521.63
2023-01-15T07:39:09.561Z,97524.13
2023-01-15T07:41:55.344Z,97507.91
2023-01-15T07:44:41.602Z,97515.47
2023-01-15T07:47:35.216Z,97481.81
2023-01-15T07:50:06.062Z,97534.41
2023-01-15T07:52:34.121Z,97510.53
2023-01-15T07:55:02.278Z,97516.72
2023-01-15T07:57:30.386Z,97520.44
2023-01-15T07:59:58.712Z,97515.88
2023-01-15T08:02:27.318Z,97521.84
2023-01-15T08:04:55.352Z,97516.09
2023-01-15T08:07:25.022Z,97526.59
2023-01-15T08:09:53.057Z,97526.59
2023-01-15T08:12:38.591Z,97533.59
2023-01-15T08:15:17.077Z,97535.22
2023-01-15T08:17:46.597Z,97525.78
2023-01-15T08:20:16.746Z,97524.53
2023-01-15T08:22:46.331Z,97536.06
2023-01-15T08:25:16.553Z,97539.75
2023-01-15T08:27:44.836Z,97529.88
2023-01-15T08:30:15.279Z,97525.34
2023-01-15T08:32:43.516Z,97525.78
2023-01-15T08:35:13.204Z,97533.38
2023-01-15T08:37:41.503Z,97520.00
2023-01-15T08:40:13.227Z,97526.16
2023-01-15T08:42:41.806Z,97517.53
2023-01-15T08:45:10.785Z,97522.91
2023-01-15T08:47:38.872Z,97516.72
2023-01-15T08:50:08.784Z,97521.84
2023-01-15T08:52:38.017Z,97538.09
2023-01-15T08:55:06.829Z,97520.78
2023-01-15T08:57:37.721Z,97480.13
2023-01-15T09:00:06.776Z,97532.31
2023-01-15T09:02:34.812Z,97518.34
2023-01-15T09:05:02.874Z,97529.88
2023-01-15T09:07:30.965Z,97526.56
2023-01-15T09:09:58.991Z,97523.19
2023-01-15T09:12:27.503Z,97508.13
2023-01-15T09:15:02.593Z,97518.63
2023-01-15T09:17:31.042Z,97497.25
2023-01-15T09:19:59.133Z,97516.97
2023-01-15T09:22:30.200Z,97509.59
2023-01-15T09:24:58.558Z,97518.25
2023-01-15T09:27:26.694Z,97512.31
2023-01-15T09:29:56.483Z,97504.72
2023-01-15T09:32:24.490Z,97512.13
2023-01-15T09:34:52.647Z,97515.03
2023-01-15T09:37:20.701Z,97524.31
2023-01-15T09:39:49.318Z,97524.50
2023-01-15T09:42:32.873Z,97509.47
2023-01-15T09:45:25.358Z,97499.81
2023-01-15T09:48:18.977Z,97504.34
2023-01-15T09:51:02.788Z,97500.63
2023-01-15T09:53:45.738Z,97501.84
2023-01-15T09:56:22.295Z,97494.78
2023-01-15T09:58:52.407Z,97477.53
2023-01-15T10:01:27.257Z,97493.28
2023-01-15T10:04:03.609Z,97500.44
2023-01-15T10:06:35.089Z,97445.75
2023-01-15T10:09:10.031Z,97505.56
2023-01-15T10:11:59.448Z,97503.50
2023-01-15T10:14:41.692Z,97508.66
2023-01-15T10:17:39.760Z,97510.72
2023-01-15T10:20:13.762Z,97498.38
2023-01-15T10:22:59.655Z,97507.03
2023-01-15T10:25:32.923Z,97500.00
2023-01-15T10:28:07.400Z,97502.91
2023-01-15T10:30:44.529Z,97506.41
2023-01-15T10:33:33.116Z,97502.91
2023-01-15T10:36:06.216Z,97509.09
2023-01-15T10:38:43.875Z,97500.44
2023-01-15T10:41:33.136Z,97509.09
2023-01-15T10:44:06.689Z,97502.69
2023-01-15T10:46:38.556Z,97495.09
2023-01-15T10:49:14.730Z,97489.31
2023-01-15T10:51:46.517Z,97501.06
2023-01-15T10:54:23.589Z,97494.66
2023-01-15T10:57:02.175Z,97478.88
2023-01-15T10:59:39.661Z,97483.16
2023-01-15T11:02:23.251Z,97483.94
2023-01-15T11:04:54.346Z,97478.59
2023-01-15T11:07:27.144Z,97485.22
2023-01-15T11:09:55.739Z,97468.31
2023-01-15T11:12:46.844Z,97480.69
2023-01-15T11:15:34.961Z,97474.91
2023-01-15T11:18:22.147Z,97454.38
2023-01-15T11:20:51.787Z,97483.94
2023-01-15T11:23:23.345Z,97478.59
2023-01-15T11:25:54.069Z,97472.44
2023-01-15T11:28:32.850Z,97413.28
2023-01-15T11:31:00.904Z,97462.97
2023-01-15T11:33:32.159Z,97443.66
2023-01-15T11:36:03.527Z,97451.81
2023-01-15T11:38:43.660Z,97423.91
2023-01-15T11:41:22.054Z,97435.75
2023-01-15T11:44:15.940Z,97440.31
2023-01-15T11:47:04.402Z,97444.84
2023-01-15T11:49:49.778Z,97427.72
2023-01-15T11:52:23.788Z,97432.06
2023-01-15T11:54:56.071Z,97427.50
2023-01-15T11:57:31.852Z,97393.34
2023-01-15T12:00:00.605Z,97396.63
2023-01-15T12:02:38.826Z,97383.25
2023-01-15T12:05:15.595Z,97375.22
2023-01-15T12:07:46.633Z,97335.81
2023-01-15T12:10:41.130Z,97369.84
2023-01-15T12:13:19.873Z,97373.59
2023-01-15T12:15:55.567Z,97353.78
2023-01-15T12:19:00.637Z,97343.09
2023-01-15T12:21:47.134Z,97343.09
2023-01-15T12:24:37.045Z,97349.50
2023-01-15T12:27:15.851Z,97339.78
2023-01-15T12:29:47.720Z,97293.44
2023-01-15T12:32:19.895Z,97323.72
2023-01-15T12:34:55.480Z,97283.88
2023-01-15T12:37:28.299Z,97297.78
2023-01-15T12:40:06.236Z,97301.56
2023-01-15T12:42:55.143Z,97307.66
2023-01-15T12:45:27.251Z,97264.91
2023-01-15T12:48:02.489Z,97282.53
2023-01-15T12:50:37.708Z,97246.00
2023-01-15T12:53:13.452Z,97274.50
2023-01-15T12:55:50.966Z,97265.66
2023-01-15T12:58:40.263Z,97256.22
2023-01-15T13:01:17.661Z,97249.38
2023-01-15T13:03:58.494Z,97237.47
2023-01-15T13:06:28.866Z,97240.44
2023-01-15T13:09:05.363Z,97229.44
2023-01-15T13:11:35.227Z,97207.63
2023-01-15T13:14:03.704Z,97195.75
2023-01-15T13:16:41.622Z,97220.06
2023-01-15T13:19:24.439Z,97225.94
2023-01-15T13:21:58.337Z,97173.06
2023-01-15T13:24:50.836Z,97206.97
2023-01-15T13:27:33.322Z,97201.63
2023-01-15T13:30:23.131Z,97180.25
2023-01-15T13:32:54.962Z,97196.28
2023-01-15T13:35:31.478Z,97186.38
2023-01-15T13:38:02.520Z,97187.19
2023-01-15T13:40:34.957Z,97168.75
2023-01-15T13:43:07.158Z,97162.50
2023-01-15T13:45:38.221Z,97153.88
2023-01-15T13:48:09.908Z,97155.94
2023-01-15T13:50:42.273Z,97124.47
2023-01-15T13:53:20.043Z,97150.59
2023-01-15T13:55:54.134Z,97150.59
2023-01-15T13:58:27.109Z,97135.56
2023-01-15T14:01:08.988Z,97127.53
2023-01-15T14:03:39.047Z,97108.84
2023-01-15T14:06:08.882Z,97104.09
2023-01-15T14:08:42.624Z,97103.88
2023-01-15T14:11:35.976Z,97111.91
2023-01-15T14:14:30.101Z,97089.88
2023-01-15T14:17:07.971Z,97081.13
2023-01-15T14:19:58.885Z,97072.44
2023-01-15T14:22:51.556Z,97049.38
2023-01-15T14:25:32.768Z,97050.19
2023-01-15T14:28:22.050Z,97041.56
2023-01-15T14:31:26.761Z,97037.25
2023-01-15T14:34:14.854Z,97020.63
2023-01-15T14:36:51.700Z,97032.13
2023-01-15T14:39:34.939Z,96991.84
2023-01-15T14:42:28.238Z,97006.16
2023-01-15T14:45:06.729Z,96949.59
2023-01-15T14:47:46.316Z,96974.50
2023-01-15T14:50:26.566Z,96991.38
2023-01-15T14:53:00.297Z,96962.16
2023-01-15T14:55:29.191Z,96979.03
2023-01-15T14:58:02.312Z,96956.81
2023-01-15T15:00:36.194Z,96886.13
2023-01-15T15:03:17.651Z,96956.81
2023-01-15T15:05:47.772Z,96950.41
2023-01-15T15:08:18.433Z,96938.66
2023-01-15T15:10:52.268Z,96935.41
2023-01-15T15:13:30.538Z,96937.03
2023-01-15T15:16:08.484Z,96840.13
2023-01-15T15:18:42.984Z,96913.16
2023-01-15T15:21:17.858Z,96911.31
2023-01-15T15:23:54.379Z,96915.59
2023-01-15T15:26:27.236Z,96908.41
2023-01-15T15:28:59.849Z,96911.88
2023-01-15T15:31:29.721Z,96904.91
2023-01-15T15:34:00.956Z,96884.81
2023-01-15T15:36:31.708Z,96895.81
2023-01-15T15:39:01.295Z,96878.13
2023-01-15T15:41:50.967Z,96882.66
2023-01-15T15:44:43.671Z,96864.16
2023-01-15T15:47:43.210Z,96860.59
2023-01-15T15:50:23.338Z,96874.84
2023-01-15T15:52:51.725Z,96842.31
2023-01-15T15:55:21.296Z,96877.53
2023-01-15T15:57:52.842Z,96862.16
2023-01-15T16:00:26.813Z,96864.97
2023-01-15T16:02:55.374Z,96864.16
2023-01-15T16:05:26.742Z,96860.44
2023-01-15T16:07:56.366Z,96847.75
2023-01-15T16:10:27.439Z,96840.38
2023-01-15T16:12:58.938Z,96852.63
2023-01-15T16:15:30.443Z,96842.72
2023-01-15T16:18:00.675Z,96849.72
2023-01-15T16:20:30.390Z,96839.03
2023-01-15T16:23:00.661Z,96844.38
2023-01-15T16:25:31.924Z,96842.72
2023-01-15T16:28:00.893Z,96840.66
2023-01-15T16:30:29.944Z,96827.22
2023-01-15T16:33:02.467Z,96752.09
2023-01-15T16:35:37.069Z,96835.75
2023-01-15T16:38:07.399Z,96839.03
2023-01-15T16:40:38.652Z,96840.66
2023-01-15T16:43:09.812Z,96832.47
2023-01-15T16:45:42.420Z,96837.38
2023-01-15T16:48:15.498Z,96834.69
2023-01-15T16:50:44.992Z,96832.47
2023-01-15T16:53:31.635Z,96806.72
2023-01-15T16:56:01.419Z,96822.97
2023-01-15T16:58:38.579Z,96828.31
2023-01-15T17:01:33.707Z,96834.47
2023-01-15T17:04:02.416Z,96829.94
2023-01-15T17:06:33.593Z,96842.28
2023-01-15T17:09:01.873Z,96835.28
2023-01-15T17:11:33.502Z,96835.28
2023-01-15T17:14:12.968Z,96843.31
2023-01-15T17:16:41.125Z,96830.16
2023-01-15T17:19:13.109Z,96840.66
2023-01-15T17:21:47.224Z,96843.56
2023-01-15T17:24:15.835Z,96807.06
2023-01-15T17:26:44.060Z,96843.31
2023-01-15T17:29:14.169Z,96835.28
2023-01-15T17:31:44.068Z,96839.03
2023-01-15T17:34:15.349Z,96805.91
2023-01-15T17:36:44.907Z,96812.09
2023-01-15T17:39:14.576Z,96846.59
2023-01-15T17:41:42.680Z,96853.81
2023-01-15T17:44:11.330Z,96853.81
2023-01-15T17:46:39.565Z,96847.06
2023-01-15T17:49:08.040Z,96852.97
2023-01-15T17:51:36.155Z,96859.38
2023-01-15T17:54:05.803Z,96852.97
2023-01-15T17:56:51.346Z,96860.22
2023-01-15T17:59:37.174Z,96829.06
2023-01-15T18:02:28.563Z,96865.78
2023-01-15T18:05:13.216Z,96847.66
2023-01-15T18:07:44.524Z,96869.50
2023-01-15T18:10:19.049Z,96869.50
2023-01-15T18:12:47.286Z,96874.84
2023-01-15T18:15:16.901Z,96875.69
2023-01-15T18:17:45.162Z,96873.22
2023-01-15T18:20:13.798Z,96887.22
2023-01-15T18:22:42.072Z,96881.03
2023-01-15T18:25:12.547Z,96888.00
2023-01-15T18:27:43.646Z,96831.25
2023-01-15T18:30:13.188Z,96867.13
2023-01-15T18:32:44.597Z,96887.78
2023-01-15T18:35:14.900Z,96897.47
2023-01-15T18:37:44.309Z,96894.19
2023-01-15T18:40:13.593Z,96896.63
2023-01-15T18:43:01.241Z,96895.81
2023-01-15T18:45:46.807Z,96896.38
2023-01-15T18:48:15.115Z,96905.94
2023-01-15T18:50:43.752Z,96917.22
2023-01-15T18:53:13.223Z,96883.50
2023-01-15T18:55:41.336Z,96892.00
2023-01-15T18:58:11.000Z,96923.88
2023-01-15T19:00:39.193Z,96925.25
2023-01-15T19:03:07.396Z,96904.94
2023-01-15T19:05:41.946Z,96887.56
2023-01-15T19:08:10.105Z,96949.34
2023-01-15T19:10:38.233Z,96949.34
2023-01-15T19:13:06.532Z,96926.34
2023-01-15T19:15:53.369Z,96961.72
2023-01-15T19:18:50.306Z,96960.88
2023-01-15T19:21:20.281Z,96976.13
2023-01-15T19:23:48.790Z,96981.47
2023-01-15T19:26:17.090Z,96977.78
2023-01-15T19:28:45.507Z,96992.19
2023-01-15T19:31:37.962Z,96988.94
2023-01-15T19:34:32.243Z,96965.31
2023-01-15T19:36:57.648Z,97000.44
2023-01-15T19:39:26.178Z,96978.81
2023-01-15T19:42:11.955Z,97018.97
2023-01-15T19:44:57.610Z,97019.41
2023-01-15T19:47:48.373Z,97001.16
2023-01-15T19:50:21.570Z,97033.41
2023-01-15T19:52:51.549Z,97041.72
2023-01-15T19:55:20.096Z,97043.50
2023-01-15T19:57:49.541Z,97058.53
2023-01-15T20:00:20.128Z,97011.09
2023-01-15T20:02:49.891Z,97070.88
2023-01-15T20:05:18.737Z,97035.34
2023-01-15T20:07:46.984Z,97086.94
2023-01-15T20:10:16.728Z,97082.63
2023-01-15T20:13:02.647Z,97089.63
2023-01-15T20:15:32.119Z,97103.00
2023-01-15T20:18:01.811Z,97113.72
2023-01-15T20:20:30.146Z,97098.00
2023-01-15T20:22:58.359Z,97129.78
2023-01-15T20:25:27.416Z,97122.78
2023-01-15T20:27:56.058Z,97137.19
2023-01-15T20:30:25.662Z,97133.50
2023-01-15T20:32:56.418Z,97154.47
2023-01-15T20:35:29.306Z,97151.78
2023-01-15T20:37:57.505Z,97122.75
2023-01-15T20:40:28.398Z,97165.19
2023-01-15T20:43:14.471Z,97145.09
2023-01-15T20:45:42.797Z,97157.00
2023-01-15T20:48:28.477Z,97174.22
2023-01-15T20:51:04.289Z,97186.59
2023-01-15T20:53:34.656Z,97185.84
2023-01-15T20:56:03.757Z,97194.03
2023-01-15T20:58:33.300Z,97204.13
2023-01-15T21:01:06.668Z,97176.88
2023-01-15T21:03:34.915Z,97180.59
2023-01-15T21:06:05.191Z,97208.91
2023-01-15T21:08:34.152Z,97213.81
2023-01-15T21:11:02.730Z,97222.44
2023-01-15T21:13:31.306Z,97224.09
2023-01-15T21:16:02.163Z,97195.81
2023-01-15T21:18:32.140Z,97227.78
2023-01-15T21:21:00.284Z,97208.19
2023-01-15T21:23:29.777Z,97229.88
2023-01-15T21:26:00.949Z,97218.00
2023-01-15T21:28:29.411Z,97219.69
2023-01-15T21:30:57.906Z,97171.03
2023-01-15T21:33:26.029Z,97258.28
2023-01-15T21:35:54.147Z,97256.44
2023-01-15T21:38:22.326Z,97256.22
2023-01-15T21:40:51.884Z,97253.53
2023-01-15T21:43:37.612Z,97263.41
2023-01-15T21:46:06.761Z,97249.19
2023-01-15T21:48:34.913Z,97260.13
2023-01-15T21:51:05.736Z,97270.63
2023-01-15T21:53:33.892Z,97269.00
2023-01-15T21:56:03.516Z,97230.09
2023-01-15T21:58:31.623Z,97281.31
2023-01-15T22:00:59.820Z,97278.06
2023-01-15T22:03:27.946Z,97308.94
2023-01-15T22:05:56.085Z,97293.69
2023-01-15T22:08:24.151Z,97290.94
2023-01-15T22:10:53.213Z,97325.00
2023-01-15T22:13:22.708Z,97322.53
2023-01-15T22:15:54.968Z,97327.44
2023-01-15T22:18:26.000Z,97330.13
2023-01-15T22:20:58.351Z,97343.53
2023-01-15T22:23:26.690Z,97341.88
2023-01-15T22:25:55.209Z,97345.59
2023-01-15T22:28:24.799Z,97348.25
2023-01-15T22:30:53.177Z,97345.59
2023-01-15T22:33:21.409Z,97367.00
2023-01-15T22:35:58.015Z,97317.81
2023-01-15T22:38:26.209Z,97330.59
2023-01-15T22:40:54.583Z,97376.09
2023-01-15T22:43:24.160Z,97388.41
2023-01-15T22:45:52.351Z,97383.13
2023-01-15T22:48:20.512Z,97406.16
2023-01-15T22:50:48.634Z,97403.47
2023-01-15T22:53:16.739Z,97409.47
2023-01-15T22:55:44.925Z,97401.66
2023-01-15T22:58:12.982Z,97416.84
2023-01-15T23:00:42.519Z,97397.56
2023-01-15T23:03:10.564Z,97431.25
2023-01-15T23:05:39.577Z,97432.94
2023-01-15T23:08:07.747Z,97422.22
2023-01-15T23:10:35.816Z,97426.34
2023-01-15T23:13:03.830Z,97422.44
2023-01-15T23:15:31.898Z,97438.28
2023-01-15T23:18:01.403Z,97449.00
2023-01-15T23:20:29.928Z,97450.00
2023-01-15T23:22:58.000Z,97424.34
2023-01-15T23:25:26.071Z,97429.25
2023-01-15T23:27:54.255Z,97454.78
2023-01-15T23:30:25.439Z,97454.78
2023-01-15T23:32:53.449Z,97447.19
2023-01-15T23:35:22.899Z,97470.41
2023-01-15T23:37:51.064Z,97463.38
2023-01-15T23:40:20.124Z,97473.50
2023-01-15T23:43:07.910Z,97485.66
2023-01-15T23:45:54.032Z,97491.22
2023-01-15T23:48:22.180Z,97493.88
2023-01-15T23:50:51.592Z,97499.25
2023-01-15T23:53:19.658Z,97490.16
2023-01-15T23:55:47.725Z,97506.22
2023-01-15T23:58:15.725Z,97501.31
